createdAt,value
2022-10-19T00:01:57.754Z,62.24
2022-10-19T00:04:48.195Z,62.32
2022-10-19T00:07:38.181Z,62.28
2022-10-19T00:10:28.141Z,62.26
2022-10-19T00:13:18.230Z,62.20
2022-10-19T00:16:13.090Z,62.10
2022-10-19T00:19:05.942Z,62.17
2022-10-19T00:21:56.336Z,62.09
2022-10-19T00:24:47.496Z,62.03
2022-10-19T00:27:38.948Z,61.90
2022-10-19T00:30:29.044Z,61.91
2022-10-19T00:33:22.001Z,61.92
2022-10-19T00:36:18.478Z,61.88
2022-10-19T00:39:12.518Z,61.91
2022-10-19T00:42:02.882Z,61.96
2022-10-19T00:45:14.244Z,62.02
2022-10-19T00:48:04.941Z,62.06
2022-10-19T00:50:57.144Z,62.02
2022-10-19T00:53:47.554Z,62.05
2022-10-19T00:56:44.258Z,62.09
2022-10-19T00:59:36.063Z,62.03
2022-10-19T01:02:26.143Z,62.07
2022-10-19T01:05:18.873Z,62.10
2022-10-19T01:08:10.211Z,61.97
2022-10-19T01:11:11.562Z,61.98
2022-10-19T01:14:14.611Z,62.03
2022-10-19T01:17:13.088Z,62.12
2022-10-19T01:20:34.686Z,61.99
2022-10-19T01:23:57.128Z,61.97
2022-10-19T01:27:20.994Z,61.96
2022-10-19T01:30:16.304Z,61.99
2022-10-19T01:33:17.616Z,62.06
2022-10-19T01:36:15.403Z,61.95
2022-10-19T01:39:11.086Z,61.91
2022-10-19T01:42:07.324Z,61.91
2022-10-19T01:45:03.332Z,61.96
2022-10-19T01:48:01.306Z,61.96
2022-10-19T01:50:56.000Z,61.96
2022-10-19T01:53:50.036Z,61.97
2022-10-19T01:56:42.318Z,61.97
2022-10-19T01:59:34.357Z,62.02
2022-10-19T02:02:25.608Z,62.08
2022-10-19T02:05:18.259Z,62.12
2022-10-19T02:08:13.385Z,62.20
2022-10-19T02:11:04.308Z,62.16
2022-10-19T02:13:58.481Z,62.20
2022-10-19T02:16:52.544Z,62.24
2022-10-19T02:19:44.199Z,62.25
2022-10-19T02:22:34.653Z,62.24
2022-10-19T02:25:26.230Z,62.35
2022-10-19T02:28:16.719Z,62.35
2022-10-19T02:31:07.236Z,62.38
2022-10-19T02:33:57.613Z,62.36
2022-10-19T02:36:48.341Z,62.43
2022-10-19T02:39:39.024Z,62.47
2022-10-19T02:42:35.906Z,62.45
2022-10-19T02:45:30.642Z,62.50
2022-10-19T02:48:25.062Z,62.48
2022-10-19T02:51:33.526Z,62.65
2022-10-19T02:54:25.067Z,62.63
2022-10-19T02:57:20.521Z,62.56
2022-10-19T03:00:14.022Z,62.61
2022-10-19T03:03:04.670Z,62.56
2022-10-19T03:05:56.397Z,62.29
2022-10-19T03:08:46.891Z,62.22
2022-10-19T03:11:37.144Z,62.23
2022-10-19T03:14:27.305Z,62.25
2022-10-19T03:17:20.836Z,62.29
2022-10-19T03:20:12.465Z,62.31
2022-10-19T03:23:02.754Z,62.32
2022-10-19T03:25:52.525Z,62.32
2022-10-19T03:28:42.429Z,62.32
2022-10-19T03:31:32.868Z,62.36
2022-10-19T03:34:23.059Z,62.33
2022-10-19T03:37:13.701Z,62.28
2022-10-19T03:40:04.629Z,62.32
2022-10-19T03:42:54.581Z,62.40
2022-10-19T03:45:48.807Z,62.42
2022-10-19T03:48:38.967Z,62.41
2022-10-19T03:51:30.395Z,62.39
2022-10-19T03:54:23.706Z,62.39
2022-10-19T03:57:17.856Z,62.46
2022-10-19T04:00:09.772Z,62.52
2022-10-19T04:03:02.708Z,62.59
2022-10-19T04:05:52.400Z,62.49
2022-10-19T04:08:43.015Z,62.45
2022-10-19T04:11:34.382Z,62.57
2022-10-19T04:14:32.643Z,62.60
2022-10-19T04:17:30.000Z,62.71
2022-10-19T04:20:20.093Z,62.68
2022-10-19T04:23:09.973Z,62.63
2022-10-19T04:26:05.282Z,62.65
2022-10-19T04:28:55.250Z,62.71
2022-10-19T04:31:45.495Z,62.70
2022-10-19T04:34:37.760Z,62.75
2022-10-19T04:37:29.722Z,62.72
2022-10-19T04:40:20.309Z,62.68
2022-10-19T04:43:10.294Z,62.67
2022-10-19T04:46:02.993Z,62.75
2022-10-19T04:48:53.728Z,62.72
2022-10-19T04:51:44.199Z,62.74
2022-10-19T04:54:34.396Z,62.78
2022-10-19T04:57:25.041Z,62.77
2022-10-19T05:00:17.481Z,62.77
2022-10-19T05:03:07.687Z,62.82
2022-10-19T05:06:00.133Z,62.87
2022-10-19T05:08:51.538Z,63.00
2022-10-19T05:11:41.547Z,62.97
2022-10-19T05:14:35.829Z,62.94
2022-10-19T05:17:30.916Z,62.82
2022-10-19T05:20:21.363Z,62.78
2022-10-19T05:23:11.640Z,62.78
2022-10-19T05:26:06.931Z,62.71
2022-10-19T05:29:00.706Z,62.58
2022-10-19T05:31:50.744Z,62.50
2022-10-19T05:34:41.073Z,62.31
2022-10-19T05:37:31.042Z,62.05
2022-10-19T05:40:21.232Z,61.86
2022-10-19T05:43:11.124Z,61.85
2022-10-19T05:46:03.761Z,61.81
2022-10-19T05:48:54.116Z,61.86
2022-10-19T05:51:44.346Z,61.81
2022-10-19T05:54:36.124Z,61.81
2022-10-19T05:57:26.838Z,61.95
2022-10-19T06:00:18.709Z,61.69
2022-10-19T06:03:08.935Z,61.66
2022-10-19T06:05:59.269Z,61.59
2022-10-19T06:08:49.935Z,61.59
2022-10-19T06:11:41.905Z,61.47
2022-10-19T06:14:31.872Z,61.52
2022-10-19T06:17:21.823Z,61.54
2022-10-19T06:20:13.528Z,61.37
2022-10-19T06:23:04.006Z,61.41
2022-10-19T06:25:54.267Z,61.21
2022-10-19T06:28:45.901Z,60.99
2022-10-19T06:31:38.398Z,60.89
2022-10-19T06:34:29.283Z,60.78
2022-10-19T06:37:19.908Z,60.72
2022-10-19T06:40:11.598Z,60.76
2022-10-19T06:43:02.043Z,60.78
2022-10-19T06:45:52.291Z,60.74
2022-10-19T06:48:42.894Z,60.73
2022-10-19T06:51:34.861Z,60.77
2022-10-19T06:54:25.678Z,60.88
2022-10-19T06:57:16.024Z,60.89
2022-10-19T07:00:08.362Z,60.88
2022-10-19T07:02:59.523Z,60.89
2022-10-19T07:05:57.582Z,60.90
2022-10-19T07:08:47.531Z,60.83
2022-10-19T07:11:38.877Z,60.78
2022-10-19T07:14:31.561Z,60.72
2022-10-19T07:17:21.544Z,60.63
2022-10-19T07:20:12.905Z,60.47
2022-10-19T07:23:03.125Z,60.46
2022-10-19T07:25:53.960Z,60.62
2022-10-19T07:28:47.092Z,60.55
2022-10-19T07:31:37.099Z,60.53
2022-10-19T07:34:28.955Z,60.42
2022-10-19T07:37:18.958Z,60.52
2022-10-19T07:40:10.342Z,60.57
2022-10-19T07:43:00.412Z,60.43
2022-10-19T07:45:50.176Z,60.35
2022-10-19T07:48:40.226Z,60.33
2022-10-19T07:51:30.646Z,60.25
2022-10-19T07:54:20.753Z,60.35
2022-10-19T07:57:12.198Z,60.28
2022-10-19T08:00:02.533Z,60.17
2022-10-19T08:03:43.226Z,60.16
2022-10-19T08:06:14.288Z,59.88
2022-10-19T08:09:05.478Z,59.83
2022-10-19T08:11:55.347Z,59.76
2022-10-19T08:14:45.506Z,59.89
2022-10-19T08:17:36.990Z,59.65
2022-10-19T08:20:27.120Z,59.37
2022-10-19T08:23:17.475Z,59.14
2022-10-19T08:26:08.319Z,59.04
2022-10-19T08:29:02.469Z,59.13
2022-10-19T08:31:53.100Z,59.38
2022-10-19T08:34:43.426Z,59.31
2022-10-19T08:37:44.319Z,59.32
2022-10-19T08:40:36.495Z,59.61
2022-10-19T08:43:35.972Z,59.58
2022-10-19T08:46:33.965Z,59.39
2022-10-19T08:49:27.199Z,59.34
2022-10-19T08:52:20.461Z,58.87
2022-10-19T08:55:20.605Z,58.70
2022-10-19T08:58:26.733Z,58.47
2022-10-19T09:01:25.559Z,58.03
2022-10-19T09:04:23.892Z,57.85
2022-10-19T09:07:29.302Z,57.76
2022-10-19T09:10:25.131Z,57.61
2022-10-19T09:13:22.265Z,57.76
2022-10-19T09:16:16.269Z,58.15
2022-10-19T09:19:14.035Z,57.99
2022-10-19T09:22:08.726Z,57.91
2022-10-19T09:25:02.341Z,57.92
2022-10-19T09:30:58.789Z,57.63
2022-10-19T09:33:55.636Z,57.69
2022-10-19T09:36:51.708Z,57.71
2022-10-19T09:39:47.869Z,57.60
2022-10-19T09:42:42.270Z,57.34
2022-10-19T09:45:43.381Z,57.18
2022-10-19T09:48:39.330Z,57.00
2022-10-19T09:51:39.563Z,56.93
2022-10-19T09:54:38.696Z,56.80
2022-10-19T09:57:28.912Z,56.53
2022-10-19T10:00:24.803Z,56.42
2022-10-19T10:03:28.863Z,56.28
2022-10-19T10:06:22.614Z,56.06
2022-10-19T10:09:19.534Z,55.89
2022-10-19T10:12:09.950Z,55.60
2022-10-19T10:14:59.941Z,55.78
2022-10-19T10:17:51.373Z,55.74
2022-10-19T10:24:01.994Z,55.68
2022-10-19T10:26:54.455Z,55.59
2022-10-19T10:29:57.559Z,55.44
2022-10-19T10:32:52.556Z,55.49
2022-10-19T10:35:49.187Z,55.48
2022-10-19T10:38:46.397Z,55.38
2022-10-19T10:41:44.750Z,55.37
2022-10-19T10:44:37.650Z,55.25
2022-10-19T10:47:29.756Z,55.31
2022-10-19T10:50:24.063Z,55.36
2022-10-19T10:53:36.045Z,55.32
2022-10-19T10:56:28.445Z,55.28
2022-10-19T10:59:24.705Z,55.09
2022-10-19T11:05:21.104Z,55.12
2022-10-19T11:08:26.008Z,55.14
2022-10-19T11:11:21.065Z,55.16
2022-10-19T11:14:28.006Z,55.24
2022-10-19T11:17:23.318Z,55.29
2022-10-19T11:20:17.608Z,55.15
2022-10-19T11:23:19.700Z,55.15
2022-10-19T11:26:26.421Z,55.38
2022-10-19T11:29:31.975Z,55.29
2022-10-19T11:32:32.330Z,55.27
2022-10-19T11:35:46.789Z,55.15
2022-10-19T11:38:48.279Z,55.11
2022-10-19T11:41:48.724Z,55.12
2022-10-19T11:44:54.785Z,55.15
2022-10-19T11:47:59.831Z,55.12
2022-10-19T11:50:58.878Z,55.13
2022-10-19T11:54:18.122Z,55.14
2022-10-19T11:57:15.058Z,55.03
2022-10-19T12:00:33.888Z,55.00
2022-10-19T12:03:48.419Z,54.89
2022-10-19T12:06:46.932Z,54.92
2022-10-19T12:09:47.676Z,54.86
2022-10-19T12:12:41.769Z,54.82
2022-10-19T12:15:36.964Z,54.65
2022-10-19T12:18:36.480Z,54.62
2022-10-19T12:21:30.415Z,54.55
2022-10-19T12:24:23.470Z,54.34
2022-10-19T12:27:17.920Z,54.44
2022-10-19T12:30:14.691Z,54.43
2022-10-19T12:33:15.170Z,54.25
2022-10-19T12:36:15.182Z,54.27
2022-10-19T12:39:14.555Z,54.26
2022-10-19T12:42:12.275Z,54.32
2022-10-19T12:45:31.453Z,54.43
2022-10-19T12:48:25.852Z,54.49
2022-10-19T12:51:20.066Z,54.47
2022-10-19T12:54:14.144Z,54.60
2022-10-19T12:57:22.795Z,54.72
2022-10-19T13:00:25.833Z,54.86
2022-10-19T13:03:25.124Z,55.07
2022-10-19T13:06:20.471Z,55.31
2022-10-19T13:09:22.803Z,55.90
2022-10-19T13:12:45.427Z,56.18
2022-10-19T13:15:54.133Z,56.66
2022-10-19T13:19:05.111Z,56.98
2022-10-19T13:22:28.534Z,57.19
2022-10-19T13:25:35.201Z,57.41
2022-10-19T13:28:53.347Z,57.59
2022-10-19T13:31:43.737Z,57.96
2022-10-19T13:34:34.581Z,57.92
2022-10-19T13:37:24.986Z,57.97
2022-10-19T13:40:24.764Z,58.23
2022-10-19T13:43:21.902Z,58.32
2022-10-19T13:46:18.066Z,58.53
2022-10-19T13:49:33.718Z,58.70
2022-10-19T13:52:42.305Z,58.72
2022-10-19T13:56:02.842Z,58.95
2022-10-19T14:02:46.091Z,59.36
2022-10-19T14:06:09.157Z,59.60
2022-10-19T14:09:16.853Z,59.64
2022-10-19T14:12:15.728Z,59.73
2022-10-19T14:15:21.496Z,59.64
2022-10-19T14:18:26.011Z,59.86
2022-10-19T14:21:16.347Z,59.93
2022-10-19T14:24:22.792Z,60.22
2022-10-19T14:27:21.203Z,60.26
2022-10-19T14:30:24.356Z,60.44
2022-10-19T14:33:20.068Z,60.64
2022-10-19T14:36:16.267Z,60.92
2022-10-19T14:39:08.356Z,60.60
2022-10-19T14:42:01.611Z,60.62
2022-10-19T14:44:55.709Z,60.92
2022-10-19T14:48:04.236Z,60.91
2022-10-19T14:50:58.401Z,61.11
2022-10-19T14:53:53.643Z,61.19
2022-10-19T14:56:50.254Z,61.14
2022-10-19T14:59:46.335Z,61.33
2022-10-19T15:02:41.575Z,61.29
2022-10-19T15:05:36.083Z,61.55
2022-10-19T15:08:34.213Z,61.78
2022-10-19T15:11:29.697Z,61.98
2022-10-19T15:14:23.608Z,61.75
2022-10-19T15:17:27.126Z,61.92
2022-10-19T15:20:27.471Z,61.94
2022-10-19T15:23:38.337Z,61.91
2022-10-19T15:26:32.775Z,61.91
2022-10-19T15:29:29.050Z,62.45
2022-10-19T15:32:26.759Z,62.84
2022-10-19T15:35:23.232Z,62.78
2022-10-19T15:38:31.583Z,62.42
2022-10-19T15:41:28.908Z,62.47
2022-10-19T15:44:35.006Z,62.63
2022-10-19T15:47:27.368Z,62.49
2022-10-19T15:50:38.050Z,62.41
2022-10-19T15:53:28.888Z,62.64
2022-10-19T15:56:19.109Z,62.76
2022-10-19T15:59:14.994Z,62.70
2022-10-19T16:02:10.818Z,62.84
2022-10-19T16:05:00.575Z,62.82
2022-10-19T16:07:50.880Z,62.96
2022-10-19T16:10:41.049Z,62.96
2022-10-19T16:13:31.805Z,62.92
2022-10-19T16:16:25.076Z,62.91
2022-10-19T16:19:15.087Z,62.80
2022-10-19T16:22:05.032Z,62.73
2022-10-19T16:24:55.157Z,62.58
2022-10-19T16:27:45.795Z,62.63
2022-10-19T16:30:35.635Z,62.61
2022-10-19T16:33:26.077Z,62.70
2022-10-19T16:36:19.219Z,62.81
2022-10-19T16:39:09.345Z,62.85
2022-10-19T16:41:59.476Z,62.92
2022-10-19T16:44:50.181Z,62.91
2022-10-19T16:47:40.882Z,63.00
2022-10-19T16:50:31.081Z,62.96
2022-10-19T16:53:21.968Z,62.89
2022-10-19T16:56:14.776Z,62.77
2022-10-19T16:59:06.840Z,62.72
2022-10-19T17:01:57.664Z,62.66
2022-10-19T17:04:48.956Z,62.70
2022-10-19T17:07:38.966Z,62.72
2022-10-19T17:10:28.945Z,62.68
2022-10-19T17:13:18.813Z,62.61
2022-10-19T17:16:11.124Z,62.41
2022-10-19T17:19:03.020Z,62.40
2022-10-19T17:21:55.642Z,62.38
2022-10-19T17:24:47.341Z,62.18
2022-10-19T17:27:37.730Z,62.16
2022-10-19T17:30:27.817Z,61.93
2022-10-19T17:33:17.845Z,62.00
2022-10-19T17:36:12.939Z,62.04
2022-10-19T17:39:05.402Z,61.78
2022-10-19T17:41:56.017Z,61.72
2022-10-19T17:44:47.597Z,61.59
2022-10-19T17:47:37.585Z,61.57
2022-10-19T17:50:27.474Z,61.82
2022-10-19T17:53:17.119Z,61.73
2022-10-19T17:56:10.162Z,61.81
2022-10-19T17:59:00.440Z,61.69
2022-10-19T18:01:50.393Z,62.00
2022-10-19T18:04:40.654Z,61.88
2022-10-19T18:07:30.874Z,61.47
2022-10-19T18:10:20.871Z,61.32
2022-10-19T18:13:10.783Z,61.28
2022-10-19T18:16:04.016Z,61.37
2022-10-19T18:18:55.230Z,61.50
2022-10-19T18:21:49.404Z,61.34
2022-10-19T18:24:39.748Z,61.41
2022-10-19T18:27:29.603Z,61.41
2022-10-19T18:30:19.524Z,61.37
2022-10-19T18:33:09.982Z,61.46
2022-10-19T18:36:00.079Z,61.29
2022-10-19T18:38:53.635Z,61.31
2022-10-19T18:41:45.082Z,61.20
2022-10-19T18:44:35.289Z,61.23
2022-10-19T18:47:26.072Z,61.24
2022-10-19T18:50:17.672Z,61.35
2022-10-19T18:53:07.722Z,61.37
2022-10-19T18:56:02.000Z,61.53
2022-10-19T18:58:52.808Z,61.70
2022-10-19T19:01:42.908Z,61.68
2022-10-19T19:04:33.153Z,61.67
2022-10-19T19:07:24.149Z,61.72
2022-10-19T19:10:15.546Z,61.71
2022-10-19T19:13:05.862Z,61.77
2022-10-19T19:16:02.502Z,61.85
2022-10-19T19:18:52.957Z,61.82
2022-10-19T19:21:44.735Z,61.83
2022-10-19T19:24:35.775Z,61.88
2022-10-19T19:27:31.409Z,61.85
2022-10-19T19:30:21.912Z,61.88
2022-10-19T19:33:12.548Z,61.91
2022-10-19T19:36:05.384Z,61.96
2022-10-19T19:38:56.641Z,62.00
2022-10-19T19:41:46.790Z,62.09
2022-10-19T19:44:36.792Z,62.15
2022-10-19T19:47:26.670Z,62.24
2022-10-19T19:50:16.660Z,62.23
2022-10-19T19:53:07.969Z,62.18
2022-10-19T19:55:58.125Z,62.21
2022-10-19T19:58:48.266Z,62.24
2022-10-19T20:01:38.405Z,62.25
2022-10-19T20:04:28.545Z,62.24
2022-10-19T20:07:18.999Z,62.34
2022-10-19T20:10:11.027Z,62.40
2022-10-19T20:13:00.811Z,62.29
2022-10-19T20:15:50.555Z,62.25
2022-10-19T20:18:41.510Z,62.25
2022-10-19T20:21:33.859Z,62.20
2022-10-19T20:24:24.381Z,62.09
2022-10-19T20:27:14.873Z,62.15
2022-10-19T20:30:05.147Z,62.20
2022-10-19T20:32:58.824Z,62.24
2022-10-19T20:35:48.976Z,62.24
2022-10-19T20:38:40.487Z,62.30
2022-10-19T20:41:31.743Z,62.31
2022-10-19T20:44:22.540Z,62.41
2022-10-19T20:47:13.346Z,62.44
2022-10-19T20:52:58.688Z,62.54
2022-10-19T20:55:49.236Z,62.47
2022-10-19T20:58:42.818Z,62.55
2022-10-19T21:01:35.105Z,62.61
2022-10-19T21:04:26.945Z,62.57
2022-10-19T21:07:17.783Z,62.64
2022-10-19T21:10:09.491Z,62.59
2022-10-19T21:12:59.494Z,62.59
2022-10-19T21:15:49.358Z,62.49
2022-10-19T21:18:39.271Z,62.44
2022-10-19T21:21:31.277Z,62.26
2022-10-19T21:24:23.705Z,62.25
2022-10-19T21:27:15.223Z,62.33
2022-10-19T21:30:06.023Z,62.32
2022-10-19T21:32:55.883Z,62.28
2022-10-19T21:35:46.367Z,62.18
2022-10-19T21:38:37.550Z,62.14
2022-10-19T21:41:27.551Z,62.20
2022-10-19T21:44:19.196Z,62.21
2022-10-19T21:47:09.056Z,62.17
2022-10-19T21:49:59.520Z,62.19
2022-10-19T21:52:49.513Z,62.24
2022-10-19T21:55:39.876Z,62.30
2022-10-19T21:58:29.569Z,62.36
2022-10-19T22:01:21.428Z,62.43
2022-10-19T22:04:15.182Z,62.52
2022-10-19T22:07:05.379Z,62.57
2022-10-19T22:09:55.159Z,62.65
2022-10-19T22:12:45.360Z,62.62
2022-10-19T22:15:37.889Z,62.66
2022-10-19T22:18:27.635Z,62.59
2022-10-19T22:21:21.797Z,62.63
2022-10-19T22:24:14.915Z,62.64
2022-10-19T22:27:04.900Z,62.64
2022-10-19T22:29:55.234Z,62.56
2022-10-19T22:32:45.273Z,62.41
2022-10-19T22:35:35.739Z,62.35
2022-10-19T22:38:27.143Z,62.38
2022-10-19T22:42:10.437Z,62.31
2022-10-19T22:46:12.034Z,62.28
2022-10-19T22:50:13.752Z,62.30
2022-10-19T22:53:22.820Z,62.38
2022-10-19T22:56:13.772Z,62.45
2022-10-19T22:59:06.100Z,62.49
2022-10-19T23:01:57.026Z,62.36
2022-10-19T23:04:47.742Z,62.20
2022-10-19T23:07:38.906Z,62.10
2022-10-19T23:10:30.033Z,62.23
2022-10-19T23:13:20.191Z,62.24
2022-10-19T23:16:11.360Z,62.34
2022-10-19T23:19:01.066Z,62.21
2022-10-19T23:21:51.432Z,62.18
2022-10-19T23:24:42.175Z,62.23
2022-10-19T23:27:32.149Z,62.23
2022-10-19T23:30:22.880Z,62.19
2022-10-19T23:33:13.283Z,62.16
2022-10-19T23:36:07.309Z,62.16
2022-10-19T23:38:58.609Z,62.10
2022-10-19T23:41:48.428Z,62.05
2022-10-19T23:44:38.583Z,61.94
2022-10-19T23:47:28.805Z,61.98
2022-10-19T23:50:19.351Z,61.98
2022-10-19T23:53:09.360Z,61.91
2022-10-19T23:56:03.101Z,61.95
2022-10-19T23:58:53.725Z,61.93
